Lossiemouth, United Kingdom
Current Conditions -  °F | °C
As of 1:50 PM on Thursday 30 Oct 2014 (Local Time) from EGQS Reporting Station
Broken Clouds Broken Clouds  
Wind Chill: 54°   Ceiling: 12000
Heat Index: 54°   Visibility: 6mi
Dew Point: 52°   Wind: 2mph
Humidity: 94%   Direction: 120°ESE
Pressure: 29.83"   Gusts: NA
Location:  57.72°N, 3.28°W
Report Text: EGQS 301350Z 12002KT 9999 FEW025 SCT040 BKN120 12/11 Q1010 BLU NOSIG
Loading
Personal Weather Stations






























Interactive Weather Map New forecast layout! Learn more

10-Day Weather Forecast

Advertisements
Track Severe Weather on mobile